Time;durP1;ratioP1;P1;durP2;ratioP2;P2;SDS_P1;SDS_P2;PMS_P1;PMS_P2;Temp;Humidity;BMP_temperature;BMP_pressure;BME280_temperature;BME280_humidity;BME280_pressure;Samples;Min_cycle;Max_cycle;Signal;HPM_P1;HPM_P2
2022/10/17 00:00:25;;;;;;;5.85;5.00;;;12.50;99.90;;;;;;5034114;28;20229;-65
2022/10/17 00:02:53;;;;;;;6.45;4.78;;;12.40;99.90;;;;;;5032461;28;20202;-65
2022/10/17 00:05:19;;;;;;;7.82;5.30;;;12.40;99.90;;;;;;5034134;28;20175;-65
2022/10/17 00:07:48;;;;;;;8.43;5.40;;;12.40;99.90;;;;;;5034133;28;20179;-65
2022/10/17 00:10:14;;;;;;;9.20;4.70;;;12.40;99.90;;;;;;5034005;28;20179;-65
2022/10/17 00:12:39;;;;;;;6.28;5.00;;;12.40;99.90;;;;;;5033553;28;20195;-65
2022/10/17 00:15:07;;;;;;;6.38;5.05;;;12.40;99.90;;;;;;5034047;28;20171;-65
2022/10/17 00:17:33;;;;;;;5.85;5.15;;;12.30;99.90;;;;;;5033558;28;20199;-65
2022/10/17 00:20:00;;;;;;;5.50;4.70;;;12.30;99.90;;;;;;5033643;28;20175;-65
2022/10/17 00:22:26;;;;;;;5.63;5.10;;;12.30;99.90;;;;;;5033550;28;20202;-65
2022/10/17 00:24:52;;;;;;;6.93;5.30;;;12.20;99.90;;;;;;5033987;28;20174;-65
2022/10/17 00:27:18;;;;;;;6.38;4.90;;;12.20;99.90;;;;;;5033614;28;20542;-65
2022/10/17 00:29:51;;;;;;;5.43;4.78;;;12.20;99.90;;;;;;5032373;28;20190;-65
2022/10/17 00:32:18;;;;;;;5.28;4.78;;;12.20;99.90;;;;;;5031991;28;20525;-65
2022/10/17 00:34:44;;;;;;;6.72;4.53;;;12.20;99.90;;;;;;5032204;28;20257;-65
2022/10/17 00:37:10;;;;;;;5.82;4.63;;;12.20;99.90;;;;;;5032280;28;20227;-65
2022/10/17 00:39:37;;;;;;;5.65;5.05;;;12.10;99.90;;;;;;5033668;28;20171;-65
2022/10/17 00:42:03;;;;;;;5.53;4.78;;;12.10;99.90;;;;;;5032228;28;20524;-66
2022/10/17 00:44:29;;;;;;;9.45;4.95;;;12.10;99.90;;;;;;5034272;28;20521;-65
2022/10/17 00:46:56;;;;;;;5.47;4.80;;;12.10;99.90;;;;;;5033944;28;20167;-65
2022/10/17 00:49:25;;;;;;;7.82;4.93;;;12.10;99.90;;;;;;5033453;28;20647;-65
2022/10/17 00:51:58;;;;;;;7.22;5.28;;;12.00;99.90;;;;;;5033577;28;20175;-65
2022/10/17 00:54:32;;;;;;;5.88;5.20;;;12.00;99.90;;;;;;5033215;28;20210;-65
2022/10/17 00:56:59;;;;;;;7.90;5.20;;;12.00;99.90;;;;;;5032320;28;20195;-65
2022/10/17 00:59:25;;;;;;;8.38;5.40;;;12.00;99.90;;;;;;5033418;28;20704;-66
2022/10/17 01:02:04;;;;;;;7.88;5.28;;;12.00;99.90;;;;;;5031955;28;20205;-66
2022/10/17 01:04:30;;;;;;;6.25;5.40;;;12.00;99.90;;;;;;5033322;28;20156;-66
2022/10/17 01:06:56;;;;;;;8.32;5.78;;;11.90;99.90;;;;;;5033476;28;20171;-66
2022/10/17 01:09:23;;;;;;;7.45;4.95;;;11.90;99.90;;;;;;5033896;28;20210;-65
2022/10/17 01:12:06;;;;;;;6.25;5.20;;;11.90;99.90;;;;;;5037090;28;20171;-66
2022/10/17 01:14:54;;;;;;;7.70;5.32;;;12.00;99.90;;;;;;5037170;28;20174;-66
2022/10/17 01:17:45;;;;;;;6.93;4.80;;;11.90;99.90;;;;;;5036927;28;20202;-65
2022/10/17 01:20:32;;;;;;;9.32;5.28;;;11.90;99.90;;;;;;5037049;28;20162;-65
2022/10/17 01:23:35;;;;;;;5.57;5.07;;;11.90;99.90;;;;;;5036566;28;20195;-66
2022/10/17 01:26:18;;;;;;;5.55;4.65;;;11.90;99.90;;;;;;5036599;28;20207;-65
2022/10/17 01:29:04;;;;;;;7.07;5.60;;;11.90;99.90;;;;;;5036495;28;20190;-65
2022/10/17 01:32:04;;;;;;;6.28;5.32;;;11.90;99.90;;;;;;5036669;28;20640;-65
2022/10/17 01:34:34;;;;;;;6.25;5.15;;;11.90;99.90;;;;;;5035820;28;20202;-65
2022/10/17 01:37:26;;;;;;;8.15;5.75;;;11.90;99.90;;;;;;5036541;28;20191;-65
2022/10/17 01:40:13;;;;;;;6.03;5.40;;;11.80;99.90;;;;;;5036230;28;20218;-65
2022/10/17 01:43:01;;;;;;;6.78;5.60;;;11.80;99.90;;;;;;5036302;28;20194;-65
2022/10/17 01:46:01;;;;;;;7.03;5.63;;;11.80;99.90;;;;;;5036279;28;20659;-65
2022/10/17 01:48:35;;;;;;;6.68;5.60;;;11.80;99.90;;;;;;5035902;28;20254;-65
2022/10/17 01:51:08;;;;;;;7.72;5.68;;;11.80;99.90;;;;;;5036434;28;20162;-66
2022/10/17 01:53:40;;;;;;;7.30;5.90;;;11.80;99.90;;;;;;5036087;28;20183;-66
2022/10/17 01:56:08;;;;;;;7.47;5.57;;;11.80;99.90;;;;;;5036944;28;20534;-63
2022/10/17 01:58:51;;;;;;;13.50;5.90;;;11.80;99.90;;;;;;5034531;28;20170;-63
2022/10/17 02:01:19;;;;;;;9.10;6.70;;;11.80;99.90;;;;;;5035960;28;20190;-63
2022/10/17 02:03:47;;;;;;;10.05;5.95;;;11.80;99.90;;;;;;5035513;28;20203;-63
2022/10/17 02:06:13;;;;;;;7.95;6.38;;;11.80;99.90;;;;;;5035815;28;20179;-63
2022/10/17 02:08:41;;;;;;;8.88;5.93;;;11.80;99.90;;;;;;5036245;28;20186;-64
2022/10/17 02:11:20;;;;;;;8.60;5.85;;;11.70;99.90;;;;;;5035839;28;20305;-63
2022/10/17 02:14:12;;;;;;;10.48;5.93;;;11.70;99.90;;;;;;5035419;28;20244;-64
2022/10/17 02:17:12;;;;;;;6.47;5.20;;;11.70;99.90;;;;;;5034838;28;20226;-64
2022/10/17 02:19:53;;;;;;;9.23;6.25;;;11.70;99.90;;;;;;5034658;28;20210;-64
2022/10/17 02:22:41;;;;;;;7.75;6.60;;;11.70;99.90;;;;;;5034114;28;20170;-63
2022/10/17 02:25:34;;;;;;;8.35;6.85;;;11.70;99.90;;;;;;5035080;28;20266;-64
2022/10/17 02:28:05;;;;;;;8.10;7.13;;;11.60;99.90;;;;;;5033945;28;20663;-63
2022/10/17 02:30:41;;;;;;;18.85;7.80;;;11.70;99.90;;;;;;5035462;28;20613;-63
2022/10/17 02:33:20;;;;;;;10.02;7.43;;;11.70;99.90;;;;;;5035402;28;20202;-63
2022/10/17 02:35:50;;;;;;;7.47;6.68;;;11.70;99.90;;;;;;5035086;28;20183;-63
2022/10/17 02:38:18;;;;;;;7.47;5.97;;;11.70;99.90;;;;;;5033845;28;20218;-63
2022/10/17 02:40:45;;;;;;;11.80;6.80;;;11.60;99.90;;;;;;5035056;28;20167;-64
2022/10/17 02:43:12;;;;;;;8.13;6.82;;;11.60;99.90;;;;;;5033614;28;20286;-64
2022/10/17 02:45:39;;;;;;;10.52;7.15;;;11.60;99.90;;;;;;5034863;28;20171;-64
2022/10/17 02:48:19;;;;;;;10.03;6.43;;;11.70;99.90;;;;;;5034701;28;20241;-64
2022/10/17 02:51:11;;;;;;;10.15;5.60;;;11.60;99.90;;;;;;5034936;28;20178;-63
2022/10/17 02:53:49;;;;;;;9.30;6.47;;;11.60;99.90;;;;;;5034400;28;20235;-63
2022/10/17 02:56:18;;;;;;;7.72;6.90;;;11.50;99.90;;;;;;5034674;28;20194;-63
2022/10/17 02:58:50;;;;;;;9.25;7.20;;;11.50;99.90;;;;;;5034616;28;20167;-63
2022/10/17 03:01:17;;;;;;;10.93;6.68;;;11.50;99.90;;;;;;5034610;28;20636;-63
2022/10/17 03:03:42;;;;;;;8.77;6.32;;;11.50;99.90;;;;;;5034298;28;20187;-63
2022/10/17 03:06:08;;;;;;;8.73;6.72;;;11.50;99.90;;;;;;5033249;28;20682;-63
2022/10/17 03:08:34;;;;;;;8.07;6.43;;;11.50;99.90;;;;;;5033201;28;20198;-63
2022/10/17 03:11:00;;;;;;;9.13;6.45;;;11.50;99.90;;;;;;5034467;28;20189;-63
2022/10/17 03:13:25;;;;;;;10.70;6.57;;;11.40;99.90;;;;;;5034230;28;20199;-63
2022/10/17 03:15:51;;;;;;;8.40;6.65;;;11.40;99.90;;;;;;5034254;28;20199;-63
2022/10/17 03:18:17;;;;;;;8.73;6.50;;;11.40;99.90;;;;;;5034095;28;20183;-63
2022/10/17 03:20:42;;;;;;;9.80;6.90;;;11.40;99.90;;;;;;5034523;28;20151;-63
2022/10/17 03:23:08;;;;;;;7.57;6.00;;;11.40;99.90;;;;;;5034226;28;20198;-63
2022/10/17 03:25:34;;;;;;;10.85;7.25;;;11.40;99.90;;;;;;5034253;28;20258;-63
2022/10/17 03:28:00;;;;;;;9.35;7.25;;;11.40;99.90;;;;;;5034070;28;20605;-63
2022/10/17 03:30:26;;;;;;;10.40;6.90;;;11.40;99.90;;;;;;5034068;28;20581;-63
2022/10/17 03:32:52;;;;;;;10.02;6.78;;;11.50;99.90;;;;;;5033528;28;20202;-63
2022/10/17 03:35:18;;;;;;;9.82;7.45;;;11.40;99.90;;;;;;5034012;28;20254;-63
2022/10/17 03:37:44;;;;;;;10.13;7.93;;;11.40;99.90;;;;;;5034207;28;20325;-63
2022/10/17 03:40:10;;;;;;;9.13;6.60;;;11.40;99.90;;;;;;5034453;28;20167;-64
2022/10/17 03:42:35;;;;;;;9.52;7.63;;;11.40;99.90;;;;;;5033932;28;20195;-64
2022/10/17 03:45:01;;;;;;;11.18;7.95;;;11.40;99.90;;;;;;5034474;28;20182;-64
2022/10/17 03:47:28;;;;;;;10.18;8.18;;;11.40;99.90;;;;;;5034146;28;20209;-64
2022/10/17 03:49:53;;;;;;;12.07;7.88;;;11.40;99.90;;;;;;5032762;28;20194;-64
2022/10/17 03:52:19;;;;;;;9.70;7.57;;;11.50;99.90;;;;;;5033670;28;20183;-64
2022/10/17 03:54:45;;;;;;;11.27;7.75;;;11.50;99.90;;;;;;5033632;28;20183;-64
2022/10/17 03:57:10;;;;;;;11.20;7.72;;;11.50;99.90;;;;;;5034192;28;20203;-64
2022/10/17 03:59:36;;;;;;;9.25;7.78;;;11.60;99.90;;;;;;5033587;28;20183;-64
2022/10/17 04:02:02;;;;;;;11.07;8.30;;;11.60;99.90;;;;;;5033545;28;20282;-64
2022/10/17 04:04:28;;;;;;;10.63;8.23;;;11.60;99.90;;;;;;5033632;28;20175;-63
2022/10/17 04:06:53;;;;;;;10.30;8.05;;;11.60;99.90;;;;;;5033471;28;20163;-62
2022/10/17 04:09:19;;;;;;;15.98;8.55;;;11.70;99.90;;;;;;5033446;28;20186;-63
2022/10/17 04:11:45;;;;;;;12.43;8.20;;;11.70;99.90;;;;;;5032076;28;20237;-62
2022/10/17 04:14:11;;;;;;;9.20;7.70;;;11.70;99.90;;;;;;5033313;28;20199;-62
2022/10/17 04:16:38;;;;;;;11.70;7.53;;;11.70;99.90;;;;;;5033261;28;20574;-62
2022/10/17 04:19:03;;;;;;;12.40;8.20;;;11.70;99.90;;;;;;5033140;28;20191;-62
2022/10/17 04:21:29;;;;;;;10.88;7.93;;;11.70;99.90;;;;;;5033205;28;20179;-62
2022/10/17 04:23:59;;;;;;;10.30;8.05;;;11.70;99.90;;;;;;5033600;28;20205;-62
2022/10/17 04:26:25;;;;;;;10.38;8.38;;;11.70;99.90;;;;;;5033148;28;20179;-62
2022/10/17 04:28:51;;;;;;;9.18;8.23;;;11.70;99.90;;;;;;5033076;28;20186;-62
2022/10/17 04:31:18;;;;;;;9.70;8.27;;;11.70;99.90;;;;;;5033335;28;20194;-62
2022/10/17 04:33:46;;;;;;;12.95;8.60;;;11.80;99.90;;;;;;5032946;28;20277;-63
2022/10/17 04:36:15;;;;;;;11.55;8.85;;;11.80;99.90;;;;;;5033330;28;20235;-62
2022/10/17 04:38:41;;;;;;;10.35;8.20;;;11.80;99.90;;;;;;5033179;28;20266;-63
2022/10/17 04:41:10;;;;;;;11.98;8.93;;;11.90;99.90;;;;;;5031904;28;20179;-62
2022/10/17 04:43:37;;;;;;;11.05;9.13;;;12.00;99.90;;;;;;5033092;28;20659;-62
2022/10/17 04:46:09;;;;;;;11.95;9.13;;;12.00;99.90;;;;;;5036714;28;20179;-62
2022/10/17 04:48:35;;;;;;;13.25;8.65;;;12.10;99.90;;;;;;5037012;28;20244;-62
2022/10/17 04:51:04;;;;;;;13.88;9.27;;;12.10;99.90;;;;;;5035771;28;20186;-62
2022/10/17 04:53:32;;;;;;;12.35;8.88;;;12.20;99.90;;;;;;5037242;28;20191;-62
2022/10/17 04:55:57;;;;;;;11.32;9.15;;;12.30;99.90;;;;;;5036907;28;20222;-62
2022/10/17 04:58:23;;;;;;;13.75;9.15;;;12.40;99.90;;;;;;5036930;28;20632;-62
2022/10/17 05:00:49;;;;;;;16.52;10.35;;;12.50;99.90;;;;;;5036825;28;20543;-62
2022/10/17 05:03:15;;;;;;;11.13;8.80;;;12.60;99.90;;;;;;5036844;28;20191;-62
2022/10/17 05:05:42;;;;;;;13.98;9.82;;;12.60;99.90;;;;;;5035444;28;20648;-62
2022/10/17 05:08:09;;;;;;;12.48;9.23;;;12.60;99.90;;;;;;5036663;28;20175;-62
2022/10/17 05:10:41;;;;;;;13.30;8.55;;;12.70;99.90;;;;;;5036680;28;20172;-62
2022/10/17 05:13:07;;;;;;;10.10;8.63;;;12.70;99.90;;;;;;5036745;28;20201;-62
2022/10/17 05:15:33;;;;;;;11.32;8.65;;;12.60;99.90;;;;;;5036781;28;20259;-63
2022/10/17 05:17:59;;;;;;;14.90;9.25;;;12.60;99.90;;;;;;5036443;28;20179;-62
2022/10/17 05:20:25;;;;;;;11.40;8.15;;;12.50;99.90;;;;;;5036672;28;20245;-62
2022/10/17 05:22:51;;;;;;;10.63;7.82;;;12.40;99.90;;;;;;5036627;28;20194;-62
2022/10/17 05:25:17;;;;;;;8.70;7.00;;;12.40;99.90;;;;;;5036610;28;20175;-63
2022/10/17 05:27:43;;;;;;;12.25;7.53;;;12.40;99.90;;;;;;5036195;28;20274;-62
2022/10/17 05:30:09;;;;;;;9.00;7.07;;;12.30;99.90;;;;;;5034993;28;20186;-63
2022/10/17 05:32:35;;;;;;;13.98;8.35;;;12.30;99.90;;;;;;5036194;28;20210;-62
2022/10/17 05:35:03;;;;;;;10.00;8.05;;;12.30;99.90;;;;;;5034809;28;20203;-62
2022/10/17 05:37:30;;;;;;;12.35;7.85;;;12.30;99.90;;;;;;5036345;28;20187;-63
2022/10/17 05:39:56;;;;;;;10.18;7.15;;;12.30;99.90;;;;;;5034800;28;20232;-62
2022/10/17 05:42:22;;;;;;;10.73;7.32;;;12.30;99.90;;;;;;5036017;28;20274;-62
2022/10/17 05:44:47;;;;;;;10.45;8.07;;;12.30;99.90;;;;;;5034733;28;20229;-62
2022/10/17 05:47:13;;;;;;;9.98;7.95;;;12.20;99.90;;;;;;5036419;28;20183;-62
2022/10/17 05:49:39;;;;;;;11.90;8.15;;;12.20;99.90;;;;;;5034853;28;20183;-62
2022/10/17 05:52:05;;;;;;;12.43;9.13;;;12.20;99.90;;;;;;5035920;28;20178;-63
2022/10/17 05:54:32;;;;;;;9.90;8.40;;;12.30;99.90;;;;;;5035842;28;20225;-63
2022/10/17 05:57:01;;;;;;;9.93;8.52;;;12.30;99.90;;;;;;5035807;28;20722;-62
2022/10/17 05:59:28;;;;;;;11.45;9.35;;;12.40;99.90;;;;;;5035749;28;20179;-62
2022/10/17 06:01:54;;;;;;;14.20;9.25;;;12.40;99.90;;;;;;5036294;28;20650;-62
2022/10/17 06:04:26;;;;;;;10.27;7.88;;;12.40;99.90;;;;;;5035387;28;20191;-62
2022/10/17 06:06:55;;;;;;;13.23;8.55;;;12.40;99.90;;;;;;5035635;28;20266;-62
2022/10/17 06:09:23;;;;;;;19.02;9.43;;;12.40;99.90;;;;;;5034260;28;20219;-62
2022/10/17 06:11:57;;;;;;;11.50;8.43;;;12.70;99.90;;;;;;5034115;28;20241;-62
2022/10/17 06:14:23;;;;;;;13.80;9.40;;;12.80;99.90;;;;;;5034138;28;20268;-62
2022/10/17 06:16:51;;;;;;;11.52;8.80;;;12.80;99.90;;;;;;5035250;28;20668;-62
2022/10/17 06:19:17;;;;;;;15.65;9.40;;;12.80;99.90;;;;;;5017365;28;20199;-62
2022/10/17 06:21:43;;;;;;;12.45;9.48;;;12.80;99.90;;;;;;5034030;28;20191;-62
2022/10/17 06:24:09;;;;;;;12.02;8.50;;;12.80;99.90;;;;;;5033852;28;20290;-62
2022/10/17 06:26:38;;;;;;;14.73;8.80;;;12.80;99.90;;;;;;5033955;28;20686;-62
2022/10/17 06:29:12;;;;;;;15.50;9.25;;;12.90;99.90;;;;;;5034748;28;20286;-62
2022/10/17 06:31:38;;;;;;;12.50;8.85;;;12.90;99.90;;;;;;5033924;28;20533;-62
2022/10/17 06:34:04;;;;;;;12.77;8.93;;;12.90;99.90;;;;;;5034922;28;20664;-62
2022/10/17 06:36:32;;;;;;;11.65;8.85;;;13.10;99.90;;;;;;5035006;28;20206;-62
2022/10/17 06:38:59;;;;;;;15.07;8.70;;;13.10;99.90;;;;;;5033749;28;20175;-62
2022/10/17 06:41:25;;;;;;;12.15;9.25;;;13.40;99.90;;;;;;5035025;28;20587;-62
2022/10/17 06:43:51;;;;;;;13.10;9.18;;;13.40;99.90;;;;;;5033671;28;20289;-62
2022/10/17 06:46:20;;;;;;;12.55;9.18;;;13.40;99.90;;;;;;5033629;28;20663;-62
2022/10/17 06:48:47;;;;;;;16.45;9.35;;;13.50;99.90;;;;;;5033405;28;20560;-62
2022/10/17 06:51:16;;;;;;;18.60;9.98;;;13.50;99.90;;;;;;5017307;28;20292;-62
2022/10/17 06:53:42;;;;;;;14.13;9.88;;;13.80;99.90;;;;;;5033363;28;20207;-62
2022/10/17 06:56:12;;;;;;;16.58;10.13;;;14.00;99.90;;;;;;5033407;28;20810;-62
2022/10/17 06:58:49;;;;;;;17.55;9.85;;;14.20;99.90;;;;;;5033430;28;20721;-62
2022/10/17 07:01:17;;;;;;;14.90;9.80;;;14.30;99.90;;;;;;5033401;28;20163;-62
2022/10/17 07:03:46;;;;;;;13.43;9.90;;;14.40;99.90;;;;;;5033147;28;20230;-62
2022/10/17 07:06:18;;;;;;;16.67;9.57;;;14.70;99.90;;;;;;5033352;28;20660;-62
2022/10/17 07:08:58;;;;;;;12.32;8.70;;;14.90;99.90;;;;;;5033792;28;20197;-62
2022/10/17 07:11:41;;;;;;;13.32;9.13;;;14.90;99.90;;;;;;5033339;28;20637;-62
2022/10/17 07:14:08;;;;;;;13.80;9.75;;;15.00;99.90;;;;;;5033018;28;20692;-62
2022/10/17 07:16:36;;;;;;;10.55;8.20;;;15.00;99.90;;;;;;5032919;28;20687;-62
2022/10/17 07:19:16;;;;;;;10.93;8.02;;;15.00;99.90;;;;;;5032755;28;20187;-62
2022/10/17 07:21:47;;;;;;;11.63;8.55;;;14.90;99.90;;;;;;5032936;28;20197;-62
2022/10/17 07:24:16;;;;;;;11.95;9.00;;;14.90;99.90;;;;;;5032814;28;20620;-62
2022/10/17 07:26:47;;;;;;;11.25;8.75;;;14.90;99.90;;;;;;5032826;28;20535;-62
2022/10/17 07:29:21;;;;;;;10.48;8.02;;;15.00;99.90;;;;;;5032561;28;20218;-62
2022/10/17 07:31:57;;;;;;;10.10;7.93;;;15.00;99.90;;;;;;5034596;28;20159;-62
2022/10/17 07:34:30;;;;;;;10.45;7.85;;;15.00;99.90;;;;;;5032744;28;20195;-62
2022/10/17 07:36:57;;;;;;;13.88;8.75;;;15.00;99.90;;;;;;5033866;28;20548;-62
2022/10/17 07:39:29;;;;;;;14.18;8.43;;;15.20;99.90;;;;;;5033986;28;20184;-62
2022/10/17 07:41:55;;;;;;;13.43;7.57;;;15.40;99.90;;;;;;5032422;28;20179;-62
2022/10/17 07:44:25;;;;;;;13.15;7.90;;;15.70;99.90;;;;;;5032348;28;20290;-62
2022/10/17 07:47:00;;;;;;;10.35;8.05;;;15.90;99.90;;;;;;5032439;28;20171;-62
2022/10/17 07:49:31;;;;;;;15.70;7.63;;;16.00;99.90;;;;;;5033396;28;20194;-62
2022/10/17 07:51:57;;;;;;;9.60;7.68;;;16.20;99.90;;;;;;5016218;28;20199;-62
2022/10/17 07:54:24;;;;;;;9.80;7.00;;;16.40;99.90;;;;;;5030880;28;20215;-62
2022/10/17 07:56:50;;;;;;;14.07;6.75;;;16.50;99.90;;;;;;5032266;28;20590;-62
2022/10/17 07:59:41;;;;;;;9.63;6.97;;;16.50;99.90;;;;;;5033593;28;20179;-62
2022/10/17 08:02:20;;;;;;;10.98;6.80;;;16.60;99.90;;;;;;5033361;28;20651;-64
2022/10/17 08:04:49;;;;;;;8.68;6.75;;;16.60;99.90;;;;;;5032144;28;20232;-62
2022/10/17 08:07:16;;;;;;;11.60;6.57;;;16.70;99.90;;;;;;5031722;28;20184;-62
2022/10/17 08:09:49;;;;;;;6.90;6.15;;;16.80;99.90;;;;;;5033363;28;20636;-62
2022/10/17 08:12:16;;;;;;;12.15;6.07;;;16.80;99.90;;;;;;5032104;28;20381;-63
2022/10/17 08:14:51;;;;;;;10.20;6.82;;;16.90;99.90;;;;;;5033623;28;20642;-62
2022/10/17 08:17:20;;;;;;;8.38;6.18;;;17.00;99.90;;;;;;5032028;28;20267;-63
2022/10/17 08:19:50;;;;;;;8.70;6.70;;;17.10;99.90;;;;;;5033236;28;20171;-62
2022/10/17 08:22:17;;;;;;;11.00;6.10;;;17.20;99.90;;;;;;5033147;28;20182;-62
2022/10/17 08:24:45;;;;;;;10.07;5.65;;;17.30;99.90;;;;;;5031976;28;20176;-62
2022/10/17 08:27:12;;;;;;;8.90;5.53;;;17.30;99.90;;;;;;5031791;28;20202;-63
2022/10/17 08:29:47;;;;;;;10.50;6.13;;;17.40;99.90;;;;;;5031984;28;20182;-62
2022/10/17 08:32:25;;;;;;;12.68;5.93;;;17.50;99.90;;;;;;5032118;28;20185;-62
2022/10/17 08:34:56;;;;;;;8.43;5.85;;;17.70;99.90;;;;;;5031867;28;20171;-62
2022/10/17 08:37:31;;;;;;;13.00;5.97;;;17.70;99.90;;;;;;5032062;28;20668;-62
2022/10/17 08:39:57;;;;;;;6.45;5.00;;;17.90;99.90;;;;;;5031898;28;20163;-62
2022/10/17 08:42:50;;;;;;;9.85;5.25;;;18.10;99.90;;;;;;5033217;28;20199;-63
2022/10/17 08:45:49;;;;;;;9.52;4.63;;;18.30;99.90;;;;;;5032088;28;20186;-62
2022/10/17 08:48:20;;;;;;;9.98;5.25;;;18.40;99.90;;;;;;5031575;28;20198;-62
2022/10/17 08:51:11;;;;;;;8.45;4.90;;;18.60;99.90;;;;;;5032926;28;20266;-62
2022/10/17 08:53:39;;;;;;;10.63;5.03;;;18.60;99.90;;;;;;5031608;28;20294;-63
2022/10/17 08:56:22;;;;;;;6.55;4.50;;;18.70;99.90;;;;;;5031565;28;20214;-66
2022/10/17 08:58:48;;;;;;;6.15;5.20;;;18.80;99.90;;;;;;5033292;28;20164;-66
2022/10/17 09:01:16;;;;;;;13.15;5.20;;;18.90;99.90;;;;;;5032947;28;20163;-66
2022/10/17 09:03:57;;;;;;;8.80;4.72;;;19.00;99.90;;;;;;5032738;28;20549;-66
2022/10/17 09:06:43;;;;;;;11.38;5.10;;;19.10;99.90;;;;;;5033229;28;20213;-66
2022/10/17 09:09:18;;;;;;;7.40;4.40;;;19.20;99.90;;;;;;5032859;28;20163;-66
2022/10/17 09:11:53;;;;;;;5.43;4.35;;;19.40;99.90;;;;;;5032898;28;20170;-66
2022/10/17 09:14:39;;;;;;;9.38;4.82;;;19.50;99.90;;;;;;5032827;28;20202;-66
2022/10/17 09:17:26;;;;;;;12.70;5.05;;;19.60;99.90;;;;;;5032907;28;20194;-66
2022/10/17 09:20:16;;;;;;;7.22;4.80;;;19.60;99.90;;;;;;5031441;28;20519;-66
2022/10/17 09:22:58;;;;;;;7.78;4.90;;;19.70;99.90;;;;;;5031458;28;20195;-66
2022/10/17 09:25:25;;;;;;;6.95;4.45;;;19.70;99.90;;;;;;5032795;28;20210;-66
2022/10/17 09:28:13;;;;;;;6.60;4.18;;;19.60;99.90;;;;;;5032642;28;20222;-66
2022/10/17 09:30:50;;;;;;;9.02;4.43;;;19.50;99.90;;;;;;5033850;28;20167;-66
2022/10/17 09:33:29;;;;;;;12.77;4.85;;;19.50;99.90;;;;;;5036568;28;20194;-66
2022/10/17 09:35:57;;;;;;;6.55;4.10;;;19.60;99.90;;;;;;5035382;28;20397;-66
2022/10/17 09:38:28;;;;;;;4.65;4.13;;;19.70;99.90;;;;;;5036531;28;20237;-66
2022/10/17 09:40:59;;;;;;;6.03;3.95;;;19.80;99.90;;;;;;5036580;28;20221;-66
2022/10/17 09:43:25;;;;;;;7.18;4.47;;;19.90;99.90;;;;;;5035323;28;20253;-66
2022/10/17 09:46:01;;;;;;;8.23;4.32;;;20.10;99.90;;;;;;5036429;28;20651;-66
2022/10/17 09:48:51;;;;;;;6.20;3.47;;;20.40;99.90;;;;;;5034621;28;20183;-66
2022/10/17 09:51:17;;;;;;;5.03;3.90;;;20.50;99.90;;;;;;5036102;28;20155;-66
2022/10/17 09:53:48;;;;;;;6.88;4.15;;;20.60;99.90;;;;;;5035997;28;20240;-66
2022/10/17 09:56:16;;;;;;;10.45;4.20;;;20.70;99.90;;;;;;5036540;28;20256;-66
2022/10/17 09:58:47;;;;;;;6.32;4.10;;;20.80;99.90;;;;;;5036416;28;20175;-66
2022/10/17 10:01:16;;;;;;;4.10;3.30;;;20.70;99.90;;;;;;5036961;28;20170;-66
2022/10/17 10:03:41;;;;;;;8.00;3.90;;;20.70;99.90;;;;;;5037780;28;20277;-66
2022/10/17 10:06:18;;;;;;;8.23;4.45;;;20.60;99.90;;;;;;5037401;28;20213;-66
2022/10/17 10:09:02;;;;;;;6.32;3.70;;;20.50;99.90;;;;;;5035989;28;20539;-66
2022/10/17 10:11:51;;;;;;;5.20;3.95;;;20.40;99.90;;;;;;5036015;28;20517;-66
2022/10/17 10:14:23;;;;;;;8.15;4.38;;;20.40;99.90;;;;;;5035622;28;20199;-65
2022/10/17 10:16:52;;;;;;;6.40;3.80;;;20.40;99.90;;;;;;5035484;28;20681;-66
2022/10/17 10:19:29;;;;;;;6.72;3.95;;;20.40;99.90;;;;;;5035775;28;20187;-66
2022/10/17 10:22:00;;;;;;;10.35;4.28;;;20.30;99.90;;;;;;5035573;28;20175;-65
2022/10/17 10:24:26;;;;;;;7.22;4.00;;;20.30;99.90;;;;;;5035303;28;20234;-65
2022/10/17 10:26:55;;;;;;;11.07;4.03;;;20.30;99.90;;;;;;5035311;28;20171;-65
2022/10/17 10:29:30;;;;;;;9.68;4.30;;;20.30;99.90;;;;;;5035186;28;20199;-65
2022/10/17 10:32:23;;;;;;;4.53;3.88;;;20.30;99.90;;;;;;5035510;28;20240;-65
2022/10/17 10:34:53;;;;;;;9.25;4.10;;;20.30;99.90;;;;;;5034664;28;20187;-66
2022/10/17 10:37:24;;;;;;;11.50;4.28;;;20.30;99.90;;;;;;5033714;28;20199;-65
2022/10/17 10:39:56;;;;;;;7.38;3.97;;;20.30;99.90;;;;;;5035409;28;20160;-65
2022/10/17 10:42:29;;;;;;;13.18;4.30;;;20.20;99.90;;;;;;5034194;28;20155;-66
2022/10/17 10:45:03;;;;;;;7.15;3.97;;;20.20;99.90;;;;;;5035248;28;20160;-66
2022/10/17 10:47:31;;;;;;;10.40;3.88;;;20.10;99.90;;;;;;5033589;28;20186;-65
2022/10/17 10:50:17;;;;;;;6.18;3.70;;;20.20;99.90;;;;;;5034773;28;20515;-66
2022/10/17 10:52:49;;;;;;;10.52;4.00;;;20.10;99.90;;;;;;5035166;28;20202;-65
2022/10/17 10:55:23;;;;;;;7.32;3.70;;;20.20;99.90;;;;;;5034971;28;20501;-66
2022/10/17 10:57:53;;;;;;;6.88;4.35;;;20.20;99.90;;;;;;5034692;28;20729;-66
2022/10/17 11:00:24;;;;;;;9.88;3.92;;;20.20;99.90;;;;;;5035165;28;20167;-65
2022/10/17 11:03:01;;;;;;;6.22;3.70;;;20.30;99.90;;;;;;5033669;28;20233;-66
2022/10/17 11:05:49;;;;;;;7.22;3.75;;;20.30;99.90;;;;;;5034474;28;20302;-66
2022/10/17 11:08:33;;;;;;;5.72;4.10;;;20.30;99.90;;;;;;5035153;28;20246;-66
2022/10/17 11:11:30;;;;;;;7.22;4.13;;;20.30;99.90;;;;;;5034764;28;20178;-65
2022/10/17 11:14:17;;;;;;;8.05;4.13;;;20.40;99.90;;;;;;5034417;28;20187;-66
2022/10/17 11:16:59;;;;;;;5.35;4.32;;;20.40;99.90;;;;;;5034646;28;20195;-65
2022/10/17 11:19:34;;;;;;;5.75;4.18;;;20.40;99.90;;;;;;5034313;28;20627;-65
2022/10/17 11:22:20;;;;;;;7.22;4.22;;;20.40;99.90;;;;;;5033003;28;20181;-65
2022/10/17 11:24:58;;;;;;;7.45;4.10;;;20.30;99.90;;;;;;5034532;28;20171;-65
2022/10/17 11:27:25;;;;;;;7.38;4.70;;;20.40;99.90;;;;;;5032813;28;20191;-66
2022/10/17 11:29:51;;;;;;;7.28;4.13;;;20.30;99.90;;;;;;5034422;28;20615;-66
2022/10/17 11:32:51;;;;;;;5.88;4.03;;;20.40;99.90;;;;;;5034264;28;20177;-66
2022/10/17 11:35:38;;;;;;;10.38;4.05;;;20.40;99.90;;;;;;5031442;28;20187;-66
2022/10/17 11:38:15;;;;;;;9.40;4.40;;;20.30;99.90;;;;;;5034329;28;20639;-66
2022/10/17 11:40:45;;;;;;;4.30;3.75;;;20.20;99.90;;;;;;5034257;28;20209;-65
2022/10/17 11:43:19;;;;;;;6.18;4.13;;;20.40;99.90;;;;;;5033843;28;20598;-65
2022/10/17 11:45:50;;;;;;;6.20;4.05;;;20.40;99.90;;;;;;5033799;28;20202;-65
2022/10/17 11:48:25;;;;;;;8.32;4.60;;;20.40;99.90;;;;;;5033794;28;20221;-65
2022/10/17 11:51:07;;;;;;;8.82;4.43;;;20.40;99.90;;;;;;5034335;28;20208;-68
2022/10/17 11:53:53;;;;;;;9.02;4.13;;;20.30;99.90;;;;;;5033789;28;20270;-65
2022/10/17 11:56:42;;;;;;;9.07;4.88;;;20.30;99.90;;;;;;5033414;28;20280;-65
2022/10/17 11:59:07;;;;;;;6.50;4.28;;;20.30;99.90;;;;;;5033467;28;20156;-66
2022/10/17 12:01:43;;;;;;;5.40;4.13;;;20.20;99.90;;;;;;5032409;28;20269;-66
2022/10/17 12:04:27;;;;;;;8.65;4.72;;;20.20;99.90;;;;;;5033427;28;20190;-66
2022/10/17 12:07:32;;;;;;;11.52;4.60;;;20.20;99.90;;;;;;5033499;28;20186;-66
2022/10/17 12:10:20;;;;;;;7.35;4.25;;;20.20;99.90;;;;;;5033781;28;20193;-66
2022/10/17 12:12:47;;;;;;;5.55;4.10;;;20.20;99.90;;;;;;5033534;28;20195;-66
2022/10/17 12:15:12;;;;;;;10.48;4.68;;;20.20;99.90;;;;;;5033929;28;20504;-66
2022/10/17 12:18:02;;;;;;;9.52;4.22;;;20.20;99.90;;;;;;5033210;28;20209;-66
2022/10/17 12:20:35;;;;;;;9.13;4.35;;;20.10;99.90;;;;;;5033557;28;20168;-66
2022/10/17 12:23:24;;;;;;;9.82;4.40;;;20.10;99.90;;;;;;5032263;28;20202;-66
2022/10/17 12:25:54;;;;;;;9.60;4.25;;;20.10;99.90;;;;;;5033705;28;20198;-66
2022/10/17 12:28:39;;;;;;;7.10;4.25;;;20.10;99.90;;;;;;5031970;28;20195;-66
2022/10/17 12:31:18;;;;;;;6.38;4.43;;;20.20;99.90;;;;;;5033347;28;20332;-66
2022/10/17 12:34:03;;;;;;;9.50;4.38;;;20.10;99.90;;;;;;5033129;28;20191;-66
2022/10/17 12:36:29;;;;;;;10.57;4.28;;;20.10;99.90;;;;;;5033395;28;20190;-66
2022/10/17 12:39:00;;;;;;;7.88;4.63;;;20.10;99.90;;;;;;5033219;28;20179;-66
2022/10/17 12:41:50;;;;;;;6.35;4.03;;;20.10;99.90;;;;;;5033198;28;20577;-66
2022/10/17 12:44:20;;;;;;;6.32;4.18;;;20.20;99.90;;;;;;5032478;28;20294;-66
2022/10/17 12:46:55;;;;;;;7.65;4.05;;;20.20;99.90;;;;;;5033169;28;20179;-66
2022/10/17 12:49:49;;;;;;;11.57;3.97;;;20.20;99.90;;;;;;5032935;28;20229;-66
2022/10/17 12:52:22;;;;;;;11.93;4.15;;;20.30;99.90;;;;;;5033213;28;20225;-66
2022/10/17 12:54:51;;;;;;;6.82;3.83;;;20.40;99.90;;;;;;5033305;28;20209;-66
2022/10/17 12:57:38;;;;;;;8.13;4.07;;;20.40;99.90;;;;;;5032815;28;20219;-66
2022/10/17 13:00:16;;;;;;;8.13;4.10;;;20.40;99.90;;;;;;5032877;28;20171;-66
2022/10/17 13:02:43;;;;;;;7.65;4.13;;;20.50;99.90;;;;;;5032790;28;20195;-66
2022/10/17 13:05:15;;;;;;;7.68;3.67;;;20.50;99.90;;;;;;5033227;28;20178;-66
2022/10/17 13:07:44;;;;;;;8.85;4.07;;;20.40;99.90;;;;;;5037134;28;20631;-66
2022/10/17 13:10:20;;;;;;;7.88;4.45;;;20.40;99.90;;;;;;5035339;28;20194;-66